64.7°F
Current conditions from King Hill
Updated every 5 minutes
 
  Thursday August 21, 2014

Station Historical Data
Daily Summary for June 15, 2011 Units:  Metric    English   Both
« Previous Day
Next Day »
Daily Weekly Monthly Yearly Custom
  High: Low: Average:
Temperature: 26.2 °C 9.6 °C 17.6 °C
Dew Point: 17.9 °C 8.3 °C 12.8 °C
Humidity: 96% 45% 76%
Wind Speed: 6.4km/h 0km/h 2.7km/h
Wind Gust: 16.1km/h - -
Wind- - WNW
Pressure: 1011.1 hPa 1008 hPa -
Precipitation: 0 mm    
Historical Graphs
 
 
Tabular Data for June 15, 2011
Time Temperature Dew Point Pressure Wind Wind Speed Wind Gust Humidity Daily Rainfall
00:00 11.2 °C 9.1 °C 1011.1 hPa Calm   1.6 km/h 87% 0 mm
00:05 11.3 °C 9.4 °C 1011.1 hPa Calm   1.6 km/h 88% 0 mm
00:10 11.7 °C 9.7 °C 1011.1 hPa Calm   1.6 km/h 88% 0 mm
00:15 12.1 °C 9.9 °C 1011.1 hPa Calm     87% 0 mm
00:20 12.4 °C 10.2 °C 1011.1 hPa Calm     86% 0 mm
00:25 12.6 °C 10.1 °C 1011.1 hPa Calm   1.6 km/h 85% 0 mm
00:30 12.4 °C 9.9 °C 1011.1 hPa Calm   1.6 km/h 85% 0 mm
00:35 12.2 °C 9.7 °C 1011.1 hPa Calm     85% 0 mm
00:40 11.8 °C 9.4 °C 1010.7 hPa Calm     85% 0 mm
00:45 11.5 °C 9.2 °C 1010.7 hPa Calm     86% 0 mm
00:50 11.2 °C 8.9 °C 1010.7 hPa Calm     86% 0 mm
00:55 10.9 °C 8.7 °C 1010.7 hPa Calm     86% 0 mm
01:00 10.6 °C 8.6 °C 1010.7 hPa Calm     87% 0 mm
01:05 10.3 °C 8.3 °C 1010.7 hPa Calm     87% 0 mm
01:10 10.3 °C 8.4 °C 1010.7 hPa Calm     88% 0 mm
01:15 10.2 °C 8.5 °C 1010.7 hPa Calm     89% 0 mm
01:20 10.2 °C 8.4 °C 1010.7 hPa Calm     89% 0 mm
01:25 10.1 °C 8.6 °C 1010.7 hPa Calm     90% 0 mm
01:30 10.1 °C 8.5 °C 1010.7 hPa Calm     90% 0 mm
01:35 10 °C 8.4 °C 1010.4 hPa Calm     90% 0 mm
01:40 10 °C 8.6 °C 1010.4 hPa Calm     91% 0 mm
01:45 9.9 °C 8.6 °C 1010.4 hPa Calm     91% 0 mm
01:50 9.8 °C 8.4 °C 1010.4 hPa Calm     91% 0 mm
01:55 9.8 °C 8.4 °C 1010.4 hPa Calm     91% 0 mm
02:00 9.8 °C 8.4 °C 1010.4 hPa Calm     91% 0 mm
02:05 9.8 °C 8.6 °C 1010.4 hPa Calm     92% 0 mm
02:10 9.9 °C 8.7 °C 1010.4 hPa Calm     92% 0 mm
02:15 9.9 °C 8.7 °C 1010.4 hPa Calm     92% 0 mm
02:20 10 °C 8.9 °C 1010.4 hPa Calm     93% 0 mm
02:25 10 °C 8.9 °C 1010 hPa Calm     93% 0 mm
02:30 10.1 °C 9 °C 1010 hPa Calm     93% 0 mm
02:40 9.9 °C 8.9 °C 1010 hPa Calm     93% 0 mm
02:45 9.9 °C 8.8 °C 1010 hPa Calm     93% 0 mm
02:50 9.9 °C 8.9 °C 1010 hPa Calm     93% 0 mm
02:55 9.9 °C 8.9 °C 1010.4 hPa Calm     93% 0 mm
03:00 9.9 °C 8.9 °C 1010.4 hPa Calm     93% 0 mm
03:05 9.8 °C 8.8 °C 1010.4 hPa Calm     93% 0 mm
03:10 9.7 °C 8.7 °C 1010 hPa Calm     93% 0 mm
03:15 9.7 °C 8.7 °C 1010 hPa Calm     93% 0 mm
03:20 9.7 °C 8.6 °C 1010 hPa Calm     93% 0 mm
03:25 9.6 °C 8.5 °C 1010 hPa Calm     93% 0 mm
03:30 9.6 °C 8.7 °C 1010 hPa Calm     94% 0 mm
03:35 9.7 °C 8.8 °C 1010 hPa Calm     94% 0 mm
03:40 9.9 °C 8.9 °C 1010 hPa Calm     94% 0 mm
03:45 9.9 °C 8.9 °C 1010 hPa Calm     94% 0 mm
03:50 9.9 °C 8.9 °C 1010 hPa Calm     94% 0 mm
03:55 9.9 °C 8.9 °C 1010 hPa Calm     94% 0 mm
04:00 9.9 °C 9.1 °C 1010 hPa Calm     95% 0 mm
04:05 9.9 °C 9.1 °C 1009.7 hPa Calm     95% 0 mm
04:10 9.9 °C 9.1 °C 1010 hPa Calm     95% 0 mm
04:15 10 °C 9.2 °C 1009.7 hPa Calm     95% 0 mm
04:20 10 °C 9.2 °C 1009.7 hPa Calm     95% 0 mm
04:25 10.1 °C 9.3 °C 1009.7 hPa Calm     95% 0 mm
04:30 10.1 °C 9.3 °C 1009.7 hPa Calm     95% 0 mm
04:35 10.1 °C 9.3 °C 1009.7 hPa Calm     95% 0 mm
04:45 10 °C 9.2 °C 1009.7 hPa Calm     95% 0 mm
04:50 10.1 °C 9.3 °C 1009.7 hPa Calm     95% 0 mm
04:55 10.1 °C 9.3 °C 1009.7 hPa Calm     95% 0 mm
05:00 10 °C 9.2 °C 1009.7 hPa Calm     95% 0 mm
05:05 10.1 °C 9.3 °C 1009.7 hPa Calm     95% 0 mm
05:10 10 °C 9.2 °C 1009.7 hPa Calm     95% 0 mm
05:15 9.9 °C 9.2 °C 1009.7 hPa Calm     95% 0 mm
05:20 9.9 °C 9.1 °C 1009.7 hPa Calm     95% 0 mm
05:25 9.9 °C 9.1 °C 1009.7 hPa Calm     95% 0 mm
05:30 9.9 °C 9.2 °C 1009.7 hPa Calm     95% 0 mm
05:40 10 °C 9.2 °C 1009.7 hPa Calm     95% 0 mm
05:45 9.9 °C 9.2 °C 1009.7 hPa Calm     95% 0 mm
05:55 10.1 °C 9.3 °C 1009.7 hPa Calm     95% 0 mm
06:00 10.2 °C 9.4 °C 1009.7 hPa Calm     95% 0 mm
06:05 10.2 °C 9.4 °C 1009.7 hPa Calm     95% 0 mm
06:10 10.3 °C 9.5 °C 1009.7 hPa Calm     95% 0 mm
06:15 10.3 °C 9.6 °C 1009.7 hPa Calm     95% 0 mm
06:20 10.4 °C 9.7 °C 1009.7 hPa Calm     95% 0 mm
06:25 10.5 °C 9.9 °C 1010 hPa Calm     96% 0 mm
06:30 10.5 °C 9.9 °C 1010 hPa Calm     96% 0 mm
06:35 10.4 °C 9.7 °C 1010 hPa Calm     95% 0 mm
06:40 10.5 °C 9.9 °C 1010 hPa Calm     96% 0 mm
06:45 10.7 °C 10.1 °C 1010 hPa Calm     96% 0 mm
06:50 10.8 °C 10.2 °C 1010 hPa Calm     96% 0 mm
06:55 10.9 °C 10.3 °C 1010 hPa Calm     96% 0 mm
07:00 11.2 °C 10.6 °C 1010 hPa Calm     96% 0 mm
07:05 11.4 °C 10.8 °C 1010 hPa Calm     96% 0 mm
07:10 11.6 °C 11 °C 1010.4 hPa Calm     96% 0 mm
07:15 11.8 °C 11.2 °C 1010.4 hPa Calm     96% 0 mm
07:20 12 °C 11.4 °C 1010.4 hPa Calm     96% 0 mm
07:25 12.2 °C 11.6 °C 1010.4 hPa Calm     96% 0 mm
07:30 12.5 °C 11.9 °C 1010 hPa Calm     96% 0 mm
07:35 12.8 °C 12.2 °C 1010.4 hPa Calm     96% 0 mm
07:40 13.2 °C 12.6 °C 1010.4 hPa Calm     96% 0 mm
07:45 13.3 °C 12.7 °C 1010.4 hPa Calm     96% 0 mm
07:50 13.4 °C 12.8 °C 1010.4 hPa Calm     96% 0 mm
08:00 13.7 °C 13.1 °C 1010.4 hPa Calm     96% 0 mm
08:05 14 °C 13.4 °C 1010.4 hPa Calm     96% 0 mm
08:10 14.3 °C 13.7 °C 1010.4 hPa Calm     96% 0 mm
08:15 14.7 °C 14.1 °C 1010.4 hPa Calm     96% 0 mm
08:20 15 °C 14.4 °C 1010.4 hPa Calm     96% 0 mm
08:25 15.4 °C 14.8 °C 1010.7 hPa Calm     96% 0 mm
08:30 15.8 °C 15.2 °C 1010.7 hPa Calm     96% 0 mm
08:40 16.4 °C 14.7 °C 1010.7 hPa Calm     90% 0 mm
08:45 16.9 °C 14.2 °C 1010.7 hPa Calm     84% 0 mm
08:50 17.6 °C 14.9 °C 1010.7 hPa Calm     84% 0 mm
09:00 18.5 °C 13.8 °C 1010.7 hPa Calm   6.4 km/h 74% 0 mm
09:05 18.8 °C 13.6 °C 1010.7 hPa Calm   6.4 km/h 72% 0 mm
09:10 18.9 °C 13.3 °C 1010.7 hPa Calm   4.8 km/h 70% 0 mm
09:20 19.4 °C 13.8 °C 1010.7 hPa Calm   1.6 km/h 70% 0 mm
09:25 19.4 °C 13.2 °C 1010.7 hPa NNE 3.2 km/h 8 km/h 67% 0 mm
09:30 19.4 °C 13.3 °C 1010.7 hPa Calm   8 km/h 68% 0 mm
09:35 19.7 °C 14.3 °C 1010.4 hPa Calm   1.6 km/h 71% 0 mm
09:40 20 °C 14.2 °C 1010.4 hPa Calm     69% 0 mm
09:45 20.4 °C 14.8 °C 1010.4 hPa Calm     70% 0 mm
09:55 21 °C 14.9 °C 1010.4 hPa Calm   1.6 km/h 68% 0 mm
10:00 21.1 °C 14.7 °C 1010.4 hPa NNE 1.6 km/h 11.3 km/h 67% 0 mm
10:05 21.2 °C 14.6 °C 1010.4 hPa Calm   11.3 km/h 66% 0 mm
10:10 21.4 °C 14.3 °C 1010.4 hPa Calm   8 km/h 64% 0 mm
10:15 21.5 °C 14.9 °C 1010.4 hPa Calm   1.6 km/h 66% 0 mm
10:20 21.6 °C 14.4 °C 1010.4 hPa Calm   1.6 km/h 64% 0 mm
10:25 21.5 °C 14.7 °C 1010.4 hPa Calm   1.6 km/h 65% 0 mm
10:30 21.7 °C 15.1 °C 1010.4 hPa Calm   1.6 km/h 66% 0 mm
10:40 22.1 °C 16.2 °C 1010.4 hPa Calm   6.4 km/h 69% 0 mm
10:45 22.3 °C 16.3 °C 1010.4 hPa Calm   4.8 km/h 69% 0 mm
10:55 22.6 °C 15.2 °C 1010 hPa WNW 1.6 km/h 6.4 km/h 63% 0 mm
11:00 22.3 °C 14.9 °C 1010.4 hPa WNW 4.8 km/h 11.3 km/h 63% 0 mm
11:05 22.2 °C 15.3 °C 1010 hPa Calm   11.3 km/h 65% 0 mm
11:10 22.5 °C 15.8 °C 1010 hPa Calm   6.4 km/h 66% 0 mm
11:15 22.7 °C 14.5 °C 1010 hPa Calm   4.8 km/h 60% 0 mm
11:20 22.7 °C 15.8 °C 1010 hPa West 1.6 km/h 6.4 km/h 65% 0 mm
11:25 22.8 °C 15.4 °C 1010 hPa NW 1.6 km/h 8 km/h 63% 0 mm
11:30 22.8 °C 16.4 °C 1010 hPa Calm   8 km/h 67% 0 mm
11:35 22.9 °C 15 °C 1010 hPa NW 1.6 km/h 11.3 km/h 61% 0 mm
11:40 22.7 °C 14.8 °C 1010 hPa Calm   11.3 km/h 61% 0 mm
11:45 22.7 °C 14.8 °C 1010 hPa Calm   9.7 km/h 61% 0 mm
11:55 23.3 °C 15.1 °C 1009.7 hPa Calm   4.8 km/h 60% 0 mm
12:00 23.3 °C 15.4 °C 1009.7 hPa Calm   1.6 km/h 61% 0 mm
12:05 23.3 °C 14.6 °C 1009.7 hPa Calm   1.6 km/h 58% 0 mm
12:10 23.6 °C 16.3 °C 1009.7 hPa Calm   8 km/h 64% 0 mm
12:15 23.9 °C 16.4 °C 1009.7 hPa NW 1.6 km/h 8 km/h 63% 0 mm
12:20 23.9 °C 15.2 °C 1009.4 hPa Calm   12.9 km/h 58% 0 mm
12:25 24 °C 16 °C 1009.4 hPa Calm   12.9 km/h 61% 0 mm
12:30 24.1 °C 16.8 °C 1009.4 hPa Calm   6.4 km/h 64% 0 mm
12:35 24.2 °C 15.9 °C 1009.4 hPa Calm   6.4 km/h 60% 0 mm
12:45 24.3 °C 15.3 °C 1009 hPa NW 1.6 km/h 4.8 km/h 57% 0 mm
12:50 24.3 °C 15.6 °C 1009.4 hPa WNW 1.6 km/h 8 km/h 58% 0 mm
12:55 24.3 °C 15 °C 1009.4 hPa WNW 4.8 km/h 9.7 km/h 56% 0 mm
13:00 24.4 °C 15.7 °C 1009.4 hPa Calm   9.7 km/h 58% 0 mm
13:05 24.7 °C 15.3 °C 1009.4 hPa NW 3.2 km/h 11.3 km/h 56% 0 mm
13:10 24.7 °C 16.7 °C 1009 hPa WNW 1.6 km/h 11.3 km/h 61% 0 mm
13:15 24.5 °C 16 °C 1009 hPa Calm   11.3 km/h 59% 0 mm
13:20 24.3 °C 15 °C 1009 hPa Calm   9.7 km/h 56% 0 mm
13:25 24.4 °C 14.8 °C 1009 hPa NW 1.6 km/h 9.7 km/h 55% 0 mm
13:30 24.6 °C 16.6 °C 1009 hPa Calm   9.7 km/h 61% 0 mm
13:35 24.9 °C 16.9 °C 1009 hPa NW 3.2 km/h 12.9 km/h 61% 0 mm
13:40 24.8 °C 14 °C 1009 hPa Calm   12.9 km/h 51% 0 mm
13:45 24.8 °C 14.6 °C 1009 hPa Calm   6.4 km/h 53% 0 mm
13:50 24.9 °C 15.3 °C 1009 hPa NW 1.6 km/h 6.4 km/h 55% 0 mm
13:55 25.2 °C 17.1 °C 1009 hPa NW 3.2 km/h 11.3 km/h 61% 0 mm
14:00 25.3 °C 16.7 °C 1009 hPa Calm   11.3 km/h 59% 0 mm
14:10 25.9 °C 16.2 °C 1009 hPa Calm   4.8 km/h 55% 0 mm
14:15 25.9 °C 16.8 °C 1009 hPa NW 4.8 km/h 12.9 km/h 57% 0 mm
14:20 25.6 °C 17.3 °C 1009 hPa WNW 3.2 km/h 14.5 km/h 60% 0 mm
14:25 25.4 °C 16.1 °C 1009 hPa NW 6.4 km/h 14.5 km/h 56% 0 mm
14:30 25.2 °C 16.1 °C 1009 hPa NW 1.6 km/h 12.9 km/h 57% 0 mm
14:35 25.3 °C 16.5 °C 1009 hPa WNW 6.4 km/h 12.9 km/h 58% 0 mm
14:40 25.3 °C 15.9 °C 1009 hPa Calm   12.9 km/h 56% 0 mm
14:45 25.4 °C 17.6 °C 1009 hPa NW 3.2 km/h 12.9 km/h 62% 0 mm
14:50 25.3 °C 16.2 °C 1009 hPa WNW 3.2 km/h 14.5 km/h 57% 0 mm
14:55 25.2 °C 17.9 °C 1009 hPa WNW 4.8 km/h 14.5 km/h 64% 0 mm
15:00 25.1 °C 16.8 °C 1009 hPa West 1.6 km/h 14.5 km/h 60% 0 mm
15:10 25.1 °C 17 °C 1009 hPa Calm   12.9 km/h 61% 0 mm
15:15 25.2 °C 15.3 °C 1009 hPa WNW 1.6 km/h 9.7 km/h 54% 0 mm
15:20 25.3 °C 17.2 °C 1008.7 hPa Calm   9.7 km/h 61% 0 mm
15:25 25.4 °C 16 °C 1008.7 hPa WNW 1.6 km/h 11.3 km/h 56% 0 mm
15:30 25.4 °C 17.1 °C 1009 hPa NW 1.6 km/h 11.3 km/h 60% 0 mm
15:35 25.5 °C 16.1 °C 1008.7 hPa Calm   11.3 km/h 56% 0 mm
15:40 25.6 °C 16.2 °C 1008.7 hPa Calm   11.3 km/h 56% 0 mm
15:50 25.4 °C 15.7 °C 1008.7 hPa WNW 1.6 km/h 12.9 km/h 55% 0 mm
15:55 25.4 °C 16 °C 1008.7 hPa WNW 1.6 km/h 12.9 km/h 56% 0 mm
16:00 25.4 °C 14.8 °C 1008.7 hPa NW 4.8 km/h 12.9 km/h 52% 0 mm
16:05 25.4 °C 14.8 °C 1008.7 hPa WNW 3.2 km/h 12.9 km/h 52% 0 mm
16:10 25.6 °C 16.4 °C 1008.7 hPa WNW 1.6 km/h 11.3 km/h 57% 0 mm
16:15 25.7 °C 15.2 °C 1008.7 hPa WNW 1.6 km/h 11.3 km/h 52% 0 mm
16:20 25.8 °C 16.6 °C 1008.7 hPa NW 1.6 km/h 12.9 km/h 57% 0 mm
16:25 25.8 °C 14.6 °C 1008.7 hPa NW 3.2 km/h 12.9 km/h 50% 0 mm
16:30 25.9 °C 15.9 °C 1008.7 hPa NW 3.2 km/h 14.5 km/h 54% 0 mm
16:35 25.9 °C 16.2 °C 1008.7 hPa NW 1.6 km/h 14.5 km/h 55% 0 mm
16:40 25.9 °C 15.1 °C 1008.7 hPa NW 4.8 km/h 16.1 km/h 51% 0 mm
16:45 25.9 °C 15.9 °C 1008.4 hPa Calm   16.1 km/h 54% 0 mm
16:50 26.2 °C 17 °C 1008.4 hPa Calm   6.4 km/h 57% 0 mm
16:55 26.2 °C 13.3 °C 1008.4 hPa NE 1.6 km/h 6.4 km/h 45% 0 mm
17:00 26.1 °C 14.8 °C 1008.4 hPa Calm   6.4 km/h 50% 0 mm
17:05 26.1 °C 14.6 °C 1008.7 hPa NW 3.2 km/h 8 km/h 49% 0 mm
17:10 25.9 °C 15.3 °C 1008.7 hPa Calm   11.3 km/h 52% 0 mm
17:15 25.9 °C 14.7 °C 1008.7 hPa Calm   11.3 km/h 50% 0 mm
17:25 26.1 °C 15.2 °C 1008.4 hPa Calm   12.9 km/h 51% 0 mm
17:30 26 °C 14.8 °C 1008.4 hPa Calm   12.9 km/h 50% 0 mm
17:35 26.1 °C 16.1 °C 1008.7 hPa WNW 1.6 km/h 6.4 km/h 54% 0 mm
17:40 26 °C 16.3 °C 1008.7 hPa Calm   6.4 km/h 55% 0 mm
17:45 26.1 °C 15.7 °C 1008.7 hPa Calm   6.4 km/h 53% 0 mm
17:50 26.1 °C 13.9 °C 1008.4 hPa Calm   3.2 km/h 47% 0 mm
17:55 26 °C 14.8 °C 1008.4 hPa Calm   9.7 km/h 50% 0 mm
18:00 26.1 °C 14.8 °C 1008.4 hPa Calm   9.7 km/h 50% 0 mm
18:05 25.9 °C 15.7 °C 1008.4 hPa Calm   9.7 km/h 53% 0 mm
18:10 25.7 °C 14.2 °C 1008.4 hPa Calm   9.7 km/h 49% 0 mm
18:15 25.7 °C 14.2 °C 1008.4 hPa WNW 1.6 km/h 9.7 km/h 49% 0 mm
18:20 25.4 °C 14.6 °C 1008.4 hPa Calm   11.3 km/h 51% 0 mm
18:25 25.3 °C 15.7 °C 1008.4 hPa Calm   11.3 km/h 55% 0 mm
18:30 25.2 °C 13.4 °C 1008.7 hPa Calm   6.4 km/h 48% 0 mm
18:35 25.1 °C 16 °C 1008.4 hPa Calm   6.4 km/h 57% 0 mm
18:40 25.1 °C 15.7 °C 1008.4 hPa Calm     56% 0 mm
18:45 25.1 °C 15.4 °C 1008.4 hPa Calm     55% 0 mm
18:50 24.9 °C 14.1 °C 1008.4 hPa Calm   1.6 km/h 51% 0 mm
18:55 24.7 °C 14.5 °C 1008.4 hPa Calm   1.6 km/h 53% 0 mm
19:00 24.6 °C 16.1 °C 1008.4 hPa Calm     59% 0 mm
19:05 24.5 °C 14.3 °C 1008.4 hPa Calm     53% 0 mm
19:10 24.4 °C 16.7 °C 1008.4 hPa Calm     62% 0 mm
19:15 24 °C 16.8 °C 1008.4 hPa Calm     64% 0 mm
19:20 23.6 °C 16.1 °C 1008.4 hPa Calm     63% 0 mm
19:25 23.2 °C 15.8 °C 1008.4 hPa Calm     63% 0 mm
19:30 22.8 °C 16.4 °C 1008.4 hPa Calm     67% 0 mm
19:40 22.1 °C 15.9 °C 1008.4 hPa Calm     68% 0 mm
19:45 21.8 °C 16.1 °C 1008.4 hPa Calm     70% 0 mm
19:50 21.3 °C 15.9 °C 1008.4 hPa Calm     71% 0 mm
19:55 20.9 °C 15.9 °C 1008.4 hPa Calm     73% 0 mm
20:00 20.4 °C 15.4 °C 1008.4 hPa Calm     73% 0 mm
20:05 20 °C 14.8 °C 1008.4 hPa Calm     72% 0 mm
20:10 19.6 °C 13.9 °C 1008.4 hPa Calm     70% 0 mm
20:15 19.4 °C 14 °C 1008.4 hPa Calm     71% 0 mm
20:20 19.1 °C 13.4 °C 1008 hPa Calm     70% 0 mm
20:25 18.8 °C 13.2 °C 1008 hPa Calm     70% 0 mm
20:30 18.5 °C 13.8 °C 1008 hPa Calm     74% 0 mm
20:35 18.1 °C 13.4 °C 1008.4 hPa Calm     74% 0 mm
20:40 17.6 °C 12.7 °C 1008.4 hPa Calm     73% 0 mm
20:45 17.1 °C 12.4 °C 1008.4 hPa Calm     74% 0 mm
20:50 16.8 °C 12.3 °C 1008.4 hPa Calm     75% 0 mm
20:55 16.4 °C 12.2 °C 1008.4 hPa Calm     76% 0 mm
21:05 15.8 °C 12.2 °C 1008.4 hPa Calm     79% 0 mm
21:10 15.6 °C 12.1 °C 1008.7 hPa Calm     80% 0 mm
21:15 15.4 °C 12.2 °C 1008.4 hPa Calm     81% 0 mm
21:20 15.2 °C 12.1 °C 1008.4 hPa Calm     82% 0 mm
21:25 15 °C 12.1 °C 1008.4 hPa Calm     83% 0 mm
21:30 14.8 °C 12 °C 1008.4 hPa Calm     83% 0 mm
21:35 14.8 °C 11.9 °C 1008.4 hPa Calm     83% 0 mm
21:40 14.6 °C 11.9 °C 1008.4 hPa Calm     84% 0 mm
21:45 14.5 °C 11.8 °C 1008.4 hPa Calm     84% 0 mm
21:50 14.4 °C 11.9 °C 1008.4 hPa Calm     85% 0 mm
21:55 14.3 °C 11.8 °C 1008.4 hPa Calm     85% 0 mm
22:00 14.3 °C 11.9 °C 1008.7 hPa Calm     86% 0 mm
22:05 14.2 °C 11.9 °C 1008.4 hPa Calm     86% 0 mm
22:10 14.1 °C 11.8 °C 1008.7 hPa Calm     86% 0 mm
22:15 14 °C 11.7 °C 1008.7 hPa Calm     86% 0 mm
22:20 13.9 °C 11.7 °C 1008.4 hPa Calm     86% 0 mm
22:25 13.9 °C 11.8 °C 1008.4 hPa Calm     87% 0 mm
22:30 13.9 °C 11.8 °C 1008.4 hPa Calm     87% 0 mm
22:35 13.9 °C 11.8 °C 1008.4 hPa Calm     87% 0 mm
22:40 13.9 °C 11.6 °C 1008.4 hPa Calm     86% 0 mm
22:45 13.9 °C 11.8 °C 1008.4 hPa Calm     87% 0 mm
22:50 13.9 °C 11.8 °C 1008.4 hPa Calm     87% 0 mm
22:55 13.8 °C 11.5 °C 1008.4 hPa Calm     86% 0 mm
23:00 13.8 °C 11.7 °C 1008.4 hPa Calm     87% 0 mm
23:05 13.9 °C 11.8 °C 1008.4 hPa Calm     87% 0 mm
23:10 13.9 °C 11.8 °C 1008.4 hPa Calm     87% 0 mm
23:15 13.9 °C 11.8 °C 1008.4 hPa Calm     87% 0 mm
23:20 14 °C 11.9 °C 1008.4 hPa Calm     87% 0 mm
23:25 14.1 °C 12 °C 1008.4 hPa Calm     87% 0 mm
23:30 14.1 °C 12 °C 1008.4 hPa Calm     87% 0 mm
23:35 14.2 °C 12.1 °C 1008.4 hPa Calm     87% 0 mm
23:40 14.2 °C 11.8 °C 1008.4 hPa Calm     86% 0 mm
23:45 14.1 °C 11.8 °C 1008.4 hPa Calm     86% 0 mm
23:50 14.1 °C 11.9 °C 1008.4 hPa Calm     87% 0 mm
23:55 14.2 °C 11.9 °C 1008.4 hPa Calm     86% 0 mm
Westford Weather
Compliments of Weather Underground

 
 
Current Radar Loop:

Copyright © WestfordWeather.net 2007-2014. All rights reserved.